sensor_id;sensor_type;location;lat;lon;timestamp;temperature;humidity
12726;DHT22;6427;49.754;6.106;2022-09-09T00:06:56;16.00;99.90
12726;DHT22;6427;49.754;6.106;2022-09-09T00:09:22;15.90;99.90
12726;DHT22;6427;49.754;6.106;2022-09-09T00:11:52;15.90;99.90
12726;DHT22;6427;49.754;6.106;2022-09-09T00:17:01;16.10;99.90
12726;DHT22;6427;49.754;6.106;2022-09-09T00:19:30;16.00;99.90
12726;DHT22;6427;49.754;6.106;2022-09-09T00:22:15;16.00;99.90
12726;DHT22;6427;49.754;6.106;2022-09-09T00:24:54;15.90;99.90
12726;DHT22;6427;49.754;6.106;2022-09-09T00:27:29;15.90;99.90
12726;DHT22;6427;49.754;6.106;2022-09-09T00:29:58;15.90;99.90
12726;DHT22;6427;49.754;6.106;2022-09-09T00:32:21;15.80;99.90
12726;DHT22;6427;49.754;6.106;2022-09-09T00:34:56;16.10;99.90
12726;DHT22;6427;49.754;6.106;2022-09-09T00:37:21;16.00;99.90
12726;DHT22;6427;49.754;6.106;2022-09-09T00:39:48;16.00;99.90
12726;DHT22;6427;49.754;6.106;2022-09-09T00:42:20;16.00;99.90
12726;DHT22;6427;49.754;6.106;2022-09-09T00:47:43;16.20;99.90
12726;DHT22;6427;49.754;6.106;2022-09-09T00:50:19;16.20;99.90
12726;DHT22;6427;49.754;6.106;2022-09-09T00:55:48;16.10;99.90
12726;DHT22;6427;49.754;6.106;2022-09-09T00:58:12;16.00;99.90
12726;DHT22;6427;49.754;6.106;2022-09-09T01:00:44;16.20;99.90
12726;DHT22;6427;49.754;6.106;2022-09-09T01:03:33;16.10;99.90
12726;DHT22;6427;49.754;6.106;2022-09-09T01:06:04;16.00;99.90
12726;DHT22;6427;49.754;6.106;2022-09-09T01:08:43;16.00;99.90
12726;DHT22;6427;49.754;6.106;2022-09-09T01:11:16;15.90;99.90
12726;DHT22;6427;49.754;6.106;2022-09-09T01:13:36;15.80;99.90
12726;DHT22;6427;49.754;6.106;2022-09-09T01:16:04;15.80;99.90
12726;DHT22;6427;49.754;6.106;2022-09-09T01:18:43;15.80;99.90
12726;DHT22;6427;49.754;6.106;2022-09-09T01:21:32;15.70;99.90
12726;DHT22;6427;49.754;6.106;2022-09-09T01:26:35;15.70;99.90
12726;DHT22;6427;49.754;6.106;2022-09-09T01:29:02;15.70;99.90
12726;DHT22;6427;49.754;6.106;2022-09-09T01:31:32;15.60;99.90
12726;DHT22;6427;49.754;6.106;2022-09-09T01:33:59;15.80;99.90
12726;DHT22;6427;49.754;6.106;2022-09-09T01:36:46;15.80;99.90
12726;DHT22;6427;49.754;6.106;2022-09-09T01:39:09;15.80;99.90
12726;DHT22;6427;49.754;6.106;2022-09-09T01:41:38;15.70;99.90
12726;DHT22;6427;49.754;6.106;2022-09-09T01:44:06;15.70;99.90
12726;DHT22;6427;49.754;6.106;2022-09-09T01:46:33;15.70;99.90
12726;DHT22;6427;49.754;6.106;2022-09-09T01:49:02;15.70;99.90
12726;DHT22;6427;49.754;6.106;2022-09-09T01:51:29;15.70;99.90
12726;DHT22;6427;49.754;6.106;2022-09-09T01:53:57;15.70;99.90
12726;DHT22;6427;49.754;6.106;2022-09-09T02:01:54;15.60;99.90
12726;DHT22;6427;49.754;6.106;2022-09-09T02:04:27;15.60;99.90
12726;DHT22;6427;49.754;6.106;2022-09-09T02:06:52;15.60;99.90
12726;DHT22;6427;49.754;6.106;2022-09-09T02:09:19;15.60;99.90
12726;DHT22;6427;49.754;6.106;2022-09-09T02:11:46;15.90;99.90
12726;DHT22;6427;49.754;6.106;2022-09-09T02:14:16;16.10;99.90
12726;DHT22;6427;49.754;6.106;2022-09-09T02:16:47;16.10;99.90
12726;DHT22;6427;49.754;6.106;2022-09-09T02:19:32;16.00;99.90
12726;DHT22;6427;49.754;6.106;2022-09-09T02:21:57;15.90;99.90
12726;DHT22;6427;49.754;6.106;2022-09-09T02:24:25;15.90;99.90
12726;DHT22;6427;49.754;6.106;2022-09-09T02:26:53;15.80;99.90
12726;DHT22;6427;49.754;6.106;2022-09-09T02:29:33;15.80;99.90
12726;DHT22;6427;49.754;6.106;2022-09-09T02:32:01;15.80;99.90
12726;DHT22;6427;49.754;6.106;2022-09-09T02:34:28;15.80;99.90
12726;DHT22;6427;49.754;6.106;2022-09-09T02:36:55;16.00;99.90
12726;DHT22;6427;49.754;6.106;2022-09-09T02:39:23;16.30;99.90
12726;DHT22;6427;49.754;6.106;2022-09-09T02:41:50;16.30;99.90
12726;DHT22;6427;49.754;6.106;2022-09-09T02:44:19;16.20;99.90
12726;DHT22;6427;49.754;6.106;2022-09-09T02:47:11;16.20;99.90
12726;DHT22;6427;49.754;6.106;2022-09-09T02:50:13;16.20;99.90
12726;DHT22;6427;49.754;6.106;2022-09-09T02:55:44;16.30;99.90
12726;DHT22;6427;49.754;6.106;2022-09-09T02:58:10;16.30;99.90
12726;DHT22;6427;49.754;6.106;2022-09-09T03:00:36;16.20;99.90
12726;DHT22;6427;49.754;6.106;2022-09-09T03:03:04;16.10;99.90
12726;DHT22;6427;49.754;6.106;2022-09-09T03:05:31;16.10;99.90
12726;DHT22;6427;49.754;6.106;2022-09-09T03:08:00;16.00;99.90
12726;DHT22;6427;49.754;6.106;2022-09-09T03:10:27;16.00;99.90
12726;DHT22;6427;49.754;6.106;2022-09-09T03:12:55;16.00;99.90
12726;DHT22;6427;49.754;6.106;2022-09-09T03:15:23;15.90;99.90
12726;DHT22;6427;49.754;6.106;2022-09-09T03:17:50;16.00;99.90
12726;DHT22;6427;49.754;6.106;2022-09-09T03:20:19;15.90;99.90
12726;DHT22;6427;49.754;6.106;2022-09-09T03:22:46;15.90;99.90
12726;DHT22;6427;49.754;6.106;2022-09-09T03:25:14;15.90;99.90
12726;DHT22;6427;49.754;6.106;2022-09-09T03:27:42;15.90;99.90
12726;DHT22;6427;49.754;6.106;2022-09-09T03:30:10;15.90;99.90
12726;DHT22;6427;49.754;6.106;2022-09-09T03:32:38;15.90;99.90
12726;DHT22;6427;49.754;6.106;2022-09-09T03:35:05;15.90;99.90
12726;DHT22;6427;49.754;6.106;2022-09-09T03:37:33;15.80;99.90
12726;DHT22;6427;49.754;6.106;2022-09-09T03:40:01;15.80;99.90
12726;DHT22;6427;49.754;6.106;2022-09-09T03:42:29;15.80;99.90
12726;DHT22;6427;49.754;6.106;2022-09-09T03:44:56;15.80;99.90
12726;DHT22;6427;49.754;6.106;2022-09-09T03:47:24;15.80;99.90
12726;DHT22;6427;49.754;6.106;2022-09-09T03:49:51;15.80;99.90
12726;DHT22;6427;49.754;6.106;2022-09-09T03:52:19;16.00;99.90
12726;DHT22;6427;49.754;6.106;2022-09-09T03:54:46;16.00;99.90
12726;DHT22;6427;49.754;6.106;2022-09-09T03:57:14;16.00;99.90
12726;DHT22;6427;49.754;6.106;2022-09-09T03:59:42;16.00;99.90
12726;DHT22;6427;49.754;6.106;2022-09-09T04:02:10;16.00;99.90
12726;DHT22;6427;49.754;6.106;2022-09-09T04:04:37;15.90;99.90
12726;DHT22;6427;49.754;6.106;2022-09-09T04:07:05;15.90;99.90
12726;DHT22;6427;49.754;6.106;2022-09-09T04:09:32;15.90;99.90
12726;DHT22;6427;49.754;6.106;2022-09-09T04:12:00;15.90;99.90
12726;DHT22;6427;49.754;6.106;2022-09-09T04:14:27;15.90;99.90
12726;DHT22;6427;49.754;6.106;2022-09-09T04:16:55;15.90;99.90
12726;DHT22;6427;49.754;6.106;2022-09-09T04:19:23;15.90;99.90
12726;DHT22;6427;49.754;6.106;2022-09-09T04:21:50;15.90;99.90
12726;DHT22;6427;49.754;6.106;2022-09-09T04:24:18;15.90;99.90
12726;DHT22;6427;49.754;6.106;2022-09-09T04:26:46;15.90;99.90
12726;DHT22;6427;49.754;6.106;2022-09-09T04:29:14;15.90;99.90
12726;DHT22;6427;49.754;6.106;2022-09-09T04:31:41;15.90;99.90
12726;DHT22;6427;49.754;6.106;2022-09-09T04:34:09;15.90;99.90
12726;DHT22;6427;49.754;6.106;2022-09-09T04:36:36;15.90;99.90
12726;DHT22;6427;49.754;6.106;2022-09-09T04:39:04;15.90;99.90
12726;DHT22;6427;49.754;6.106;2022-09-09T04:41:32;15.90;99.90
12726;DHT22;6427;49.754;6.106;2022-09-09T04:44:00;15.90;99.90
12726;DHT22;6427;49.754;6.106;2022-09-09T04:46:28;15.90;99.90
12726;DHT22;6427;49.754;6.106;2022-09-09T04:48:56;15.90;99.90
12726;DHT22;6427;49.754;6.106;2022-09-09T04:51:24;15.90;99.90
12726;DHT22;6427;49.754;6.106;2022-09-09T04:53:51;15.90;99.90
12726;DHT22;6427;49.754;6.106;2022-09-09T04:56:19;15.80;99.90
12726;DHT22;6427;49.754;6.106;2022-09-09T04:58:47;15.90;99.90
12726;DHT22;6427;49.754;6.106;2022-09-09T05:01:19;15.80;99.90
12726;DHT22;6427;49.754;6.106;2022-09-09T05:03:45;15.90;99.90
12726;DHT22;6427;49.754;6.106;2022-09-09T05:06:15;15.90;99.90
12726;DHT22;6427;49.754;6.106;2022-09-09T05:08:43;16.10;99.90
12726;DHT22;6427;49.754;6.106;2022-09-09T05:11:20;16.10;99.90
12726;DHT22;6427;49.754;6.106;2022-09-09T05:13:46;16.10;99.90
12726;DHT22;6427;49.754;6.106;2022-09-09T05:16:14;16.10;99.90
12726;DHT22;6427;49.754;6.106;2022-09-09T05:18:42;16.00;99.90
12726;DHT22;6427;49.754;6.106;2022-09-09T05:21:11;16.00;99.90
12726;DHT22;6427;49.754;6.106;2022-09-09T05:23:38;16.00;99.90
12726;DHT22;6427;49.754;6.106;2022-09-09T05:26:07;16.00;99.90
12726;DHT22;6427;49.754;6.106;2022-09-09T05:28:35;16.00;99.90
12726;DHT22;6427;49.754;6.106;2022-09-09T05:31:05;16.10;99.90
12726;DHT22;6427;49.754;6.106;2022-09-09T05:33:33;16.10;99.90
12726;DHT22;6427;49.754;6.106;2022-09-09T05:36:04;16.10;99.90
12726;DHT22;6427;49.754;6.106;2022-09-09T05:38:31;16.30;99.90
12726;DHT22;6427;49.754;6.106;2022-09-09T05:40:59;16.30;99.90
12726;DHT22;6427;49.754;6.106;2022-09-09T05:43:27;16.30;99.90
12726;DHT22;6427;49.754;6.106;2022-09-09T05:46:07;16.40;99.90
12726;DHT22;6427;49.754;6.106;2022-09-09T05:48:34;16.30;99.90
12726;DHT22;6427;49.754;6.106;2022-09-09T05:51:03;16.30;99.90
12726;DHT22;6427;49.754;6.106;2022-09-09T05:53:30;16.30;99.90
12726;DHT22;6427;49.754;6.106;2022-09-09T05:56:07;16.30;99.90
12726;DHT22;6427;49.754;6.106;2022-09-09T05:58:34;16.20;99.90
12726;DHT22;6427;49.754;6.106;2022-09-09T06:01:07;16.20;99.90
12726;DHT22;6427;49.754;6.106;2022-09-09T06:03:36;16.20;99.90
12726;DHT22;6427;49.754;6.106;2022-09-09T06:06:04;16.20;99.90
12726;DHT22;6427;49.754;6.106;2022-09-09T06:08:35;16.20;99.90
12726;DHT22;6427;49.754;6.106;2022-09-09T06:11:02;16.20;99.90
12726;DHT22;6427;49.754;6.106;2022-09-09T06:13:29;16.20;99.90
12726;DHT22;6427;49.754;6.106;2022-09-09T06:15:56;16.30;99.90
12726;DHT22;6427;49.754;6.106;2022-09-09T06:18:24;16.30;99.90
12726;DHT22;6427;49.754;6.106;2022-09-09T06:20:55;16.30;99.90
12726;DHT22;6427;49.754;6.106;2022-09-09T06:23:22;16.30;99.90
12726;DHT22;6427;49.754;6.106;2022-09-09T06:25:49;16.30;99.90
12726;DHT22;6427;49.754;6.106;2022-09-09T06:28:17;16.30;99.90
12726;DHT22;6427;49.754;6.106;2022-09-09T06:30:44;16.50;99.90
12726;DHT22;6427;49.754;6.106;2022-09-09T06:33:12;16.50;99.90
12726;DHT22;6427;49.754;6.106;2022-09-09T06:35:40;16.50;99.90
12726;DHT22;6427;49.754;6.106;2022-09-09T06:38:08;16.50;99.90
12726;DHT22;6427;49.754;6.106;2022-09-09T06:40:35;16.50;99.90
12726;DHT22;6427;49.754;6.106;2022-09-09T06:43:03;16.50;99.90
12726;DHT22;6427;49.754;6.106;2022-09-09T06:45:30;16.70;99.90
12726;DHT22;6427;49.754;6.106;2022-09-09T06:47:58;16.80;99.90
12726;DHT22;6427;49.754;6.106;2022-09-09T06:50:26;16.70;99.90
12726;DHT22;6427;49.754;6.106;2022-09-09T06:52:54;16.70;99.90
12726;DHT22;6427;49.754;6.106;2022-09-09T06:55:21;16.70;99.90
12726;DHT22;6427;49.754;6.106;2022-09-09T06:57:50;16.70;99.90
12726;DHT22;6427;49.754;6.106;2022-09-09T07:00:17;16.70;99.90
12726;DHT22;6427;49.754;6.106;2022-09-09T07:02:45;17.00;99.90
12726;DHT22;6427;49.754;6.106;2022-09-09T07:05:12;17.00;99.90
12726;DHT22;6427;49.754;6.106;2022-09-09T07:07:41;16.90;99.90
12726;DHT22;6427;49.754;6.106;2022-09-09T07:10:08;16.90;99.90
12726;DHT22;6427;49.754;6.106;2022-09-09T07:12:36;16.90;99.90
12726;DHT22;6427;49.754;6.106;2022-09-09T07:15:03;16.80;99.90
12726;DHT22;6427;49.754;6.106;2022-09-09T07:17:31;17.10;99.90
12726;DHT22;6427;49.754;6.106;2022-09-09T07:19:59;17.10;99.90
12726;DHT22;6427;49.754;6.106;2022-09-09T07:22:27;17.30;99.90
12726;DHT22;6427;49.754;6.106;2022-09-09T07:24:54;17.30;99.90
12726;DHT22;6427;49.754;6.106;2022-09-09T07:27:22;17.20;99.90
12726;DHT22;6427;49.754;6.106;2022-09-09T07:29:50;17.20;99.90
12726;DHT22;6427;49.754;6.106;2022-09-09T07:32:17;17.10;99.90
12726;DHT22;6427;49.754;6.106;2022-09-09T07:34:45;17.10;99.90
12726;DHT22;6427;49.754;6.106;2022-09-09T07:37:12;17.10;99.90
12726;DHT22;6427;49.754;6.106;2022-09-09T07:39:40;17.10;99.90
12726;DHT22;6427;49.754;6.106;2022-09-09T07:42:07;17.10;99.90
12726;DHT22;6427;49.754;6.106;2022-09-09T07:44:36;17.10;99.90
12726;DHT22;6427;49.754;6.106;2022-09-09T07:47:03;17.10;99.90
12726;DHT22;6427;49.754;6.106;2022-09-09T07:49:31;17.10;99.90
12726;DHT22;6427;49.754;6.106;2022-09-09T07:51:58;17.40;99.90
12726;DHT22;6427;49.754;6.106;2022-09-09T07:54:26;17.70;99.90
12726;DHT22;6427;49.754;6.106;2022-09-09T07:56:53;17.70;99.90
12726;DHT22;6427;49.754;6.106;2022-09-09T07:59:22;17.70;99.90
12726;DHT22;6427;49.754;6.106;2022-09-09T08:01:50;17.60;99.90
12726;DHT22;6427;49.754;6.106;2022-09-09T08:04:18;17.60;99.90
12726;DHT22;6427;49.754;6.106;2022-09-09T08:06:52;17.60;99.90
12726;DHT22;6427;49.754;6.106;2022-09-09T08:09:15;17.50;99.90
12726;DHT22;6427;49.754;6.106;2022-09-09T08:11:43;17.40;99.90
12726;DHT22;6427;49.754;6.106;2022-09-09T08:14:11;17.40;99.90
12726;DHT22;6427;49.754;6.106;2022-09-09T08:16:40;17.40;99.90
12726;DHT22;6427;49.754;6.106;2022-09-09T08:19:07;17.40;99.90
12726;DHT22;6427;49.754;6.106;2022-09-09T08:21:36;17.40;99.90
12726;DHT22;6427;49.754;6.106;2022-09-09T08:24:02;17.40;99.90
12726;DHT22;6427;49.754;6.106;2022-09-09T08:26:33;17.50;99.90
12726;DHT22;6427;49.754;6.106;2022-09-09T08:29:01;17.50;99.90
12726;DHT22;6427;49.754;6.106;2022-09-09T08:31:32;17.50;99.90
12726;DHT22;6427;49.754;6.106;2022-09-09T08:34:00;17.80;99.90
12726;DHT22;6427;49.754;6.106;2022-09-09T08:36:28;17.80;99.90
12726;DHT22;6427;49.754;6.106;2022-09-09T08:38:55;17.80;99.90
12726;DHT22;6427;49.754;6.106;2022-09-09T08:44:04;17.80;99.90
12726;DHT22;6427;49.754;6.106;2022-09-09T08:46:51;17.90;99.90
12726;DHT22;6427;49.754;6.106;2022-09-09T08:51:45;18.10;99.90
12726;DHT22;6427;49.754;6.106;2022-09-09T08:54:13;18.10;99.90
12726;DHT22;6427;49.754;6.106;2022-09-09T08:56:41;18.20;99.90
12726;DHT22;6427;49.754;6.106;2022-09-09T08:59:09;18.20;99.90
12726;DHT22;6427;49.754;6.106;2022-09-09T09:04:52;18.40;99.90
12726;DHT22;6427;49.754;6.106;2022-09-09T09:07:35;18.50;99.90
12726;DHT22;6427;49.754;6.106;2022-09-09T09:10:19;18.60;99.90
12726;DHT22;6427;49.754;6.106;2022-09-09T09:12:35;18.50;99.90
12726;DHT22;6427;49.754;6.106;2022-09-09T09:15:00;18.50;99.90
12726;DHT22;6427;49.754;6.106;2022-09-09T09:17:28;18.40;99.90
12726;DHT22;6427;49.754;6.106;2022-09-09T09:19:55;18.40;99.90
12726;DHT22;6427;49.754;6.106;2022-09-09T09:22:35;18.40;99.90
12726;DHT22;6427;49.754;6.106;2022-09-09T09:25:08;18.40;99.90
12726;DHT22;6427;49.754;6.106;2022-09-09T09:27:44;18.50;99.90
12726;DHT22;6427;49.754;6.106;2022-09-09T09:30:22;18.50;99.90
12726;DHT22;6427;49.754;6.106;2022-09-09T09:32:53;18.50;99.90
12726;DHT22;6427;49.754;6.106;2022-09-09T09:35:20;18.50;99.90
12726;DHT22;6427;49.754;6.106;2022-09-09T09:37:48;18.80;99.90
12726;DHT22;6427;49.754;6.106;2022-09-09T09:40:17;18.80;99.90
12726;DHT22;6427;49.754;6.106;2022-09-09T09:42:51;18.70;99.90
12726;DHT22;6427;49.754;6.106;2022-09-09T09:45:16;18.70;99.90
12726;DHT22;6427;49.754;6.106;2022-09-09T09:47:43;18.90;99.90
12726;DHT22;6427;49.754;6.106;2022-09-09T09:50:17;18.90;99.90
12726;DHT22;6427;49.754;6.106;2022-09-09T09:52:52;18.90;99.90
12726;DHT22;6427;49.754;6.106;2022-09-09T09:55:12;19.00;99.90
12726;DHT22;6427;49.754;6.106;2022-09-09T09:57:39;19.20;99.90
12726;DHT22;6427;49.754;6.106;2022-09-09T10:00:16;19.20;99.80
12726;DHT22;6427;49.754;6.106;2022-09-09T10:02:44;19.30;99.90
12726;DHT22;6427;49.754;6.106;2022-09-09T10:05:21;19.20;99.70
12726;DHT22;6427;49.754;6.106;2022-09-09T10:10:51;19.30;99.50
12726;DHT22;6427;49.754;6.106;2022-09-09T10:13:20;19.30;99.50
12726;DHT22;6427;49.754;6.106;2022-09-09T10:21:16;19.90;97.60
12726;DHT22;6427;49.754;6.106;2022-09-09T10:23:28;19.80;97.30
12726;DHT22;6427;49.754;6.106;2022-09-09T10:26:22;19.70;97.50
12726;DHT22;6427;49.754;6.106;2022-09-09T10:31:27;19.80;97.60
12726;DHT22;6427;49.754;6.106;2022-09-09T10:36:39;19.90;98.10
12726;DHT22;6427;49.754;6.106;2022-09-09T10:47:39;20.40;97.10
12726;DHT22;6427;49.754;6.106;2022-09-09T10:55:48;20.80;94.90
12726;DHT22;6427;49.754;6.106;2022-09-09T10:58:18;20.80;94.30
12726;DHT22;6427;49.754;6.106;2022-09-09T11:00:49;20.80;94.00
12726;DHT22;6427;49.754;6.106;2022-09-09T11:03:21;20.80;93.60
12726;DHT22;6427;49.754;6.106;2022-09-09T11:06:06;21.00;92.80
12726;DHT22;6427;49.754;6.106;2022-09-09T11:08:24;21.00;92.60
12726;DHT22;6427;49.754;6.106;2022-09-09T11:11:08;20.90;92.50
12726;DHT22;6427;49.754;6.106;2022-09-09T11:19:04;20.90;92.20
12726;DHT22;6427;49.754;6.106;2022-09-09T11:21:33;21.10;92.20
12726;DHT22;6427;49.754;6.106;2022-09-09T11:24:09;21.20;91.40
12726;DHT22;6427;49.754;6.106;2022-09-09T11:26:37;21.20;91.20
12726;DHT22;6427;49.754;6.106;2022-09-09T11:31:55;21.10;90.60
12726;DHT22;6427;49.754;6.106;2022-09-09T11:34:20;21.00;90.80
12726;DHT22;6427;49.754;6.106;2022-09-09T11:36:56;21.00;90.90
12726;DHT22;6427;49.754;6.106;2022-09-09T11:44:42;21.00;90.60
12726;DHT22;6427;49.754;6.106;2022-09-09T11:47:23;21.00;90.60
12726;DHT22;6427;49.754;6.106;2022-09-09T11:49:49;21.10;90.80
12726;DHT22;6427;49.754;6.106;2022-09-09T11:52:23;21.10;90.60
12726;DHT22;6427;49.754;6.106;2022-09-09T11:54:50;21.10;91.10
12726;DHT22;6427;49.754;6.106;2022-09-09T11:57:34;21.20;91.60
12726;DHT22;6427;49.754;6.106;2022-09-09T12:00:00;21.40;91.20
12726;DHT22;6427;49.754;6.106;2022-09-09T12:02:28;21.50;90.90
12726;DHT22;6427;49.754;6.106;2022-09-09T12:05:08;21.60;90.60
12726;DHT22;6427;49.754;6.106;2022-09-09T12:07:59;21.80;90.90
12726;DHT22;6427;49.754;6.106;2022-09-09T12:10:30;21.90;90.60
12726;DHT22;6427;49.754;6.106;2022-09-09T12:12:54;21.90;90.10
12726;DHT22;6427;49.754;6.106;2022-09-09T12:15:26;21.90;89.00
12726;DHT22;6427;49.754;6.106;2022-09-09T12:17:53;21.90;89.00
12726;DHT22;6427;49.754;6.106;2022-09-09T12:23:32;21.90;86.20
12726;DHT22;6427;49.754;6.106;2022-09-09T12:26:21;21.80;86.90
12726;DHT22;6427;49.754;6.106;2022-09-09T12:28:52;21.60;89.00
12726;DHT22;6427;49.754;6.106;2022-09-09T12:36:44;20.50;95.60
12726;DHT22;6427;49.754;6.106;2022-09-09T12:39:16;20.50;95.60
12726;DHT22;6427;49.754;6.106;2022-09-09T12:41:38;20.50;97.30
12726;DHT22;6427;49.754;6.106;2022-09-09T12:44:06;20.60;98.10
12726;DHT22;6427;49.754;6.106;2022-09-09T12:46:43;20.70;98.70
12726;DHT22;6427;49.754;6.106;2022-09-09T12:52:00;20.90;98.10
12726;DHT22;6427;49.754;6.106;2022-09-09T12:54:26;20.90;97.60
12726;DHT22;6427;49.754;6.106;2022-09-09T12:56:54;20.90;98.00
12726;DHT22;6427;49.754;6.106;2022-09-09T12:59:25;20.80;97.60
12726;DHT22;6427;49.754;6.106;2022-09-09T13:01:55;20.80;97.80
12726;DHT22;6427;49.754;6.106;2022-09-09T13:04:19;20.70;97.80
12726;DHT22;6427;49.754;6.106;2022-09-09T13:06:47;20.60;97.80
12726;DHT22;6427;49.754;6.106;2022-09-09T13:09:15;20.50;98.00
12726;DHT22;6427;49.754;6.106;2022-09-09T13:11:42;20.50;97.90
12726;DHT22;6427;49.754;6.106;2022-09-09T13:14:18;20.20;97.70
12726;DHT22;6427;49.754;6.106;2022-09-09T13:16:53;20.20;97.70
12726;DHT22;6427;49.754;6.106;2022-09-09T13:19:14;20.00;98.70
12726;DHT22;6427;49.754;6.106;2022-09-09T13:21:42;19.90;99.80
12726;DHT22;6427;49.754;6.106;2022-09-09T13:24:26;19.80;99.90
12726;DHT22;6427;49.754;6.106;2022-09-09T13:26:56;19.60;99.90
12726;DHT22;6427;49.754;6.106;2022-09-09T13:29:23;19.40;99.90
12726;DHT22;6427;49.754;6.106;2022-09-09T13:31:51;19.00;99.90
12726;DHT22;6427;49.754;6.106;2022-09-09T13:37:02;18.70;99.90
12726;DHT22;6427;49.754;6.106;2022-09-09T13:39:26;18.70;99.90
12726;DHT22;6427;49.754;6.106;2022-09-09T13:41:54;18.60;99.90
12726;DHT22;6427;49.754;6.106;2022-09-09T13:44:23;18.50;99.90
12726;DHT22;6427;49.754;6.106;2022-09-09T13:46:59;18.30;99.90
12726;DHT22;6427;49.754;6.106;2022-09-09T13:51:45;18.10;99.90
12726;DHT22;6427;49.754;6.106;2022-09-09T13:54:12;18.00;99.90
12726;DHT22;6427;49.754;6.106;2022-09-09T13:56:39;17.90;99.90
12726;DHT22;6427;49.754;6.106;2022-09-09T13:59:11;17.90;99.90
12726;DHT22;6427;49.754;6.106;2022-09-09T14:01:34;18.00;99.90
12726;DHT22;6427;49.754;6.106;2022-09-09T14:04:02;17.90;99.90
12726;DHT22;6427;49.754;6.106;2022-09-09T14:06:30;17.90;99.90
12726;DHT22;6427;49.754;6.106;2022-09-09T14:08:57;17.90;99.90
12726;DHT22;6427;49.754;6.106;2022-09-09T14:11:25;17.90;99.90
12726;DHT22;6427;49.754;6.106;2022-09-09T14:13:53;17.90;99.90
12726;DHT22;6427;49.754;6.106;2022-09-09T14:16:20;17.90;99.90
12726;DHT22;6427;49.754;6.106;2022-09-09T14:18:48;18.00;99.90
12726;DHT22;6427;49.754;6.106;2022-09-09T14:21:16;18.00;99.90
12726;DHT22;6427;49.754;6.106;2022-09-09T14:23:43;18.00;99.90
12726;DHT22;6427;49.754;6.106;2022-09-09T14:26:11;18.30;99.90
12726;DHT22;6427;49.754;6.106;2022-09-09T14:28:39;18.30;99.90
12726;DHT22;6427;49.754;6.106;2022-09-09T14:31:06;18.30;99.90
12726;DHT22;6427;49.754;6.106;2022-09-09T14:33:34;18.40;99.90
12726;DHT22;6427;49.754;6.106;2022-09-09T14:36:02;18.40;99.90
12726;DHT22;6427;49.754;6.106;2022-09-09T14:38:29;18.40;99.90
12726;DHT22;6427;49.754;6.106;2022-09-09T14:40:56;18.50;99.90
12726;DHT22;6427;49.754;6.106;2022-09-09T14:43:24;18.50;99.90
12726;DHT22;6427;49.754;6.106;2022-09-09T14:45:52;18.50;99.90
12726;DHT22;6427;49.754;6.106;2022-09-09T14:48:19;18.60;99.90
12726;DHT22;6427;49.754;6.106;2022-09-09T14:50:47;18.60;99.90
12726;DHT22;6427;49.754;6.106;2022-09-09T14:53:15;18.60;99.90
12726;DHT22;6427;49.754;6.106;2022-09-09T14:55:42;18.60;99.90
12726;DHT22;6427;49.754;6.106;2022-09-09T14:58:09;18.60;99.90
12726;DHT22;6427;49.754;6.106;2022-09-09T15:00:37;18.60;99.90
12726;DHT22;6427;49.754;6.106;2022-09-09T15:03:05;18.60;99.90
12726;DHT22;6427;49.754;6.106;2022-09-09T15:05:33;18.60;99.90
12726;DHT22;6427;49.754;6.106;2022-09-09T15:08:01;18.60;99.90
12726;DHT22;6427;49.754;6.106;2022-09-09T15:10:28;18.50;99.90
12726;DHT22;6427;49.754;6.106;2022-09-09T15:12:56;18.50;99.90
12726;DHT22;6427;49.754;6.106;2022-09-09T15:15:23;18.50;99.90
12726;DHT22;6427;49.754;6.106;2022-09-09T15:17:51;18.40;99.90
12726;DHT22;6427;49.754;6.106;2022-09-09T15:20:18;18.60;99.90
12726;DHT22;6427;49.754;6.106;2022-09-09T15:22:46;18.60;99.90
12726;DHT22;6427;49.754;6.106;2022-09-09T15:25:13;18.50;99.90
12726;DHT22;6427;49.754;6.106;2022-09-09T15:27:41;18.40;99.90
12726;DHT22;6427;49.754;6.106;2022-09-09T15:30:09;18.10;99.90
12726;DHT22;6427;49.754;6.106;2022-09-09T15:32:37;18.10;99.90
12726;DHT22;6427;49.754;6.106;2022-09-09T15:35:05;18.00;99.90
12726;DHT22;6427;49.754;6.106;2022-09-09T15:37:32;17.90;99.90
12726;DHT22;6427;49.754;6.106;2022-09-09T15:40:00;17.80;99.90
12726;DHT22;6427;49.754;6.106;2022-09-09T15:42:27;17.70;99.90
12726;DHT22;6427;49.754;6.106;2022-09-09T15:44:55;17.60;99.90
12726;DHT22;6427;49.754;6.106;2022-09-09T15:47:22;17.60;99.90
12726;DHT22;6427;49.754;6.106;2022-09-09T15:49:50;17.50;99.90
12726;DHT22;6427;49.754;6.106;2022-09-09T15:52:18;17.50;99.90
12726;DHT22;6427;49.754;6.106;2022-09-09T15:54:45;17.50;99.90
12726;DHT22;6427;49.754;6.106;2022-09-09T15:57:13;17.50;99.90
12726;DHT22;6427;49.754;6.106;2022-09-09T15:59:41;17.50;99.90
12726;DHT22;6427;49.754;6.106;2022-09-09T16:02:08;17.50;99.90
12726;DHT22;6427;49.754;6.106;2022-09-09T16:04:36;17.50;99.90
12726;DHT22;6427;49.754;6.106;2022-09-09T16:07:05;17.60;99.90
12726;DHT22;6427;49.754;6.106;2022-09-09T16:09:32;17.60;99.90
12726;DHT22;6427;49.754;6.106;2022-09-09T16:12:00;17.70;99.90
12726;DHT22;6427;49.754;6.106;2022-09-09T16:14:27;17.70;99.90
12726;DHT22;6427;49.754;6.106;2022-09-09T16:16:55;17.90;99.90
12726;DHT22;6427;49.754;6.106;2022-09-09T16:19:26;18.10;99.90
12726;DHT22;6427;49.754;6.106;2022-09-09T16:21:54;18.10;99.90
12726;DHT22;6427;49.754;6.106;2022-09-09T16:24:21;18.30;99.90
12726;DHT22;6427;49.754;6.106;2022-09-09T16:26:50;18.50;99.90
12726;DHT22;6427;49.754;6.106;2022-09-09T16:29:18;18.80;99.90
12726;DHT22;6427;49.754;6.106;2022-09-09T16:31:45;18.80;99.90
12726;DHT22;6427;49.754;6.106;2022-09-09T16:34:12;18.90;99.90
12726;DHT22;6427;49.754;6.106;2022-09-09T16:36:40;18.90;99.90
12726;DHT22;6427;49.754;6.106;2022-09-09T16:39:09;19.00;99.90
12726;DHT22;6427;49.754;6.106;2022-09-09T16:41:36;19.00;99.90
12726;DHT22;6427;49.754;6.106;2022-09-09T16:44:05;19.20;99.90
12726;DHT22;6427;49.754;6.106;2022-09-09T16:46:32;19.50;99.90
12726;DHT22;6427;49.754;6.106;2022-09-09T16:48:59;19.40;99.90
12726;DHT22;6427;49.754;6.106;2022-09-09T16:51:30;19.30;99.90
12726;DHT22;6427;49.754;6.106;2022-09-09T16:54:00;19.20;99.90
12726;DHT22;6427;49.754;6.106;2022-09-09T16:56:28;19.00;99.90
12726;DHT22;6427;49.754;6.106;2022-09-09T16:58:59;18.80;99.90
12726;DHT22;6427;49.754;6.106;2022-09-09T17:01:27;18.60;99.90
12726;DHT22;6427;49.754;6.106;2022-09-09T17:03:58;18.50;99.90
12726;DHT22;6427;49.754;6.106;2022-09-09T17:06:25;18.50;99.90
12726;DHT22;6427;49.754;6.106;2022-09-09T17:08:59;18.50;99.90
12726;DHT22;6427;49.754;6.106;2022-09-09T17:11:26;18.30;99.90
12726;DHT22;6427;49.754;6.106;2022-09-09T17:13:54;18.30;99.90
12726;DHT22;6427;49.754;6.106;2022-09-09T17:16:23;18.20;99.90
12726;DHT22;6427;49.754;6.106;2022-09-09T17:18:49;18.10;99.90
12726;DHT22;6427;49.754;6.106;2022-09-09T17:21:19;18.00;99.90
12726;DHT22;6427;49.754;6.106;2022-09-09T17:23:45;18.00;99.90
12726;DHT22;6427;49.754;6.106;2022-09-09T17:26:17;18.00;99.90
12726;DHT22;6427;49.754;6.106;2022-09-09T17:28:40;17.90;99.90